sensor_id;sensor_type;location;lat;lon;timestamp;P1;durP1;ratioP1;P2;durP2;ratioP2
38425;SDS011;24210;51.460;6.148;2023-04-16T00:00:55;6.87;;;2.50;;
38425;SDS011;24210;51.460;6.148;2023-04-16T00:03:20;7.87;;;2.90;;
38425;SDS011;24210;51.460;6.148;2023-04-16T00:05:45;6.50;;;2.93;;
38425;SDS011;24210;51.460;6.148;2023-04-16T00:08:11;6.93;;;3.30;;
38425;SDS011;24210;51.460;6.148;2023-04-16T00:10:36;6.23;;;2.47;;
38425;SDS011;24210;51.460;6.148;2023-04-16T00:13:01;7.53;;;2.57;;
38425;SDS011;24210;51.460;6.148;2023-04-16T00:15:26;8.60;;;4.00;;
38425;SDS011;24210;51.460;6.148;2023-04-16T00:17:52;7.10;;;2.60;;
38425;SDS011;24210;51.460;6.148;2023-04-16T00:20:17;6.37;;;2.67;;
38425;SDS011;24210;51.460;6.148;2023-04-16T00:22:44;5.63;;;2.28;;
38425;SDS011;24210;51.460;6.148;2023-04-16T00:25:09;5.20;;;2.87;;
38425;SDS011;24210;51.460;6.148;2023-04-16T00:27:34;8.53;;;2.60;;
38425;SDS011;24210;51.460;6.148;2023-04-16T00:30:00;6.97;;;3.00;;
38425;SDS011;24210;51.460;6.148;2023-04-16T00:32:25;6.77;;;4.03;;
38425;SDS011;24210;51.460;6.148;2023-04-16T00:34:50;6.47;;;3.70;;
38425;SDS011;24210;51.460;6.148;2023-04-16T00:37:15;10.93;;;4.53;;
38425;SDS011;24210;51.460;6.148;2023-04-16T00:39:41;10.00;;;3.93;;
38425;SDS011;24210;51.460;6.148;2023-04-16T00:42:06;9.10;;;3.97;;
38425;SDS011;24210;51.460;6.148;2023-04-16T00:44:31;7.53;;;3.70;;
38425;SDS011;24210;51.460;6.148;2023-04-16T00:46:59;7.30;;;4.65;;
38425;SDS011;24210;51.460;6.148;2023-04-16T00:49:25;8.80;;;3.90;;
38425;SDS011;24210;51.460;6.148;2023-04-16T00:51:51;11.27;;;4.90;;
38425;SDS011;24210;51.460;6.148;2023-04-16T00:54:16;9.00;;;4.43;;
38425;SDS011;24210;51.460;6.148;2023-04-16T00:56:42;7.53;;;3.37;;
38425;SDS011;24210;51.460;6.148;2023-04-16T00:59:07;8.80;;;3.73;;
38425;SDS011;24210;51.460;6.148;2023-04-16T01:01:32;8.73;;;5.00;;
38425;SDS011;24210;51.460;6.148;2023-04-16T01:03:57;7.60;;;4.67;;
38425;SDS011;24210;51.460;6.148;2023-04-16T01:06:23;9.80;;;4.33;;
38425;SDS011;24210;51.460;6.148;2023-04-16T01:08:48;9.63;;;4.47;;
38425;SDS011;24210;51.460;6.148;2023-04-16T01:11:14;9.67;;;5.00;;
38425;SDS011;24210;51.460;6.148;2023-04-16T01:13:39;11.33;;;5.43;;
38425;SDS011;24210;51.460;6.148;2023-04-16T01:16:05;13.53;;;5.17;;
38425;SDS011;24210;51.460;6.148;2023-04-16T01:18:30;6.88;;;3.80;;
38425;SDS011;24210;51.460;6.148;2023-04-16T01:20:56;6.27;;;4.63;;
38425;SDS011;24210;51.460;6.148;2023-04-16T01:23:21;9.00;;;4.50;;
38425;SDS011;24210;51.460;6.148;2023-04-16T01:25:46;7.57;;;4.93;;
38425;SDS011;24210;51.460;6.148;2023-04-16T01:28:13;11.02;;;5.05;;
38425;SDS011;24210;51.460;6.148;2023-04-16T01:30:38;10.03;;;4.90;;
38425;SDS011;24210;51.460;6.148;2023-04-16T01:33:03;11.53;;;5.27;;
38425;SDS011;24210;51.460;6.148;2023-04-16T01:35:28;9.23;;;4.57;;
38425;SDS011;24210;51.460;6.148;2023-04-16T01:37:54;12.13;;;4.53;;
38425;SDS011;24210;51.460;6.148;2023-04-16T01:40:19;11.03;;;4.97;;
38425;SDS011;24210;51.460;6.148;2023-04-16T01:42:44;9.40;;;4.33;;
38425;SDS011;24210;51.460;6.148;2023-04-16T01:45:09;8.57;;;5.03;;
38425;SDS011;24210;51.460;6.148;2023-04-16T01:47:35;13.53;;;4.43;;
38425;SDS011;24210;51.460;6.148;2023-04-16T01:50:00;11.83;;;4.73;;
38425;SDS011;24210;51.460;6.148;2023-04-16T01:52:26;10.37;;;5.40;;
38425;SDS011;24210;51.460;6.148;2023-04-16T01:54:51;9.17;;;4.47;;
38425;SDS011;24210;51.460;6.148;2023-04-16T01:57:16;14.10;;;5.57;;
38425;SDS011;24210;51.460;6.148;2023-04-16T01:59:41;9.80;;;5.30;;
38425;SDS011;24210;51.460;6.148;2023-04-16T02:02:07;9.53;;;4.43;;
38425;SDS011;24210;51.460;6.148;2023-04-16T02:04:35;10.15;;;5.60;;
38425;SDS011;24210;51.460;6.148;2023-04-16T02:07:00;9.73;;;4.77;;
38425;SDS011;24210;51.460;6.148;2023-04-16T02:09:25;11.93;;;5.37;;
38425;SDS011;24210;51.460;6.148;2023-04-16T02:11:51;10.63;;;5.50;;
38425;SDS011;24210;51.460;6.148;2023-04-16T02:14:16;9.00;;;5.47;;
38425;SDS011;24210;51.460;6.148;2023-04-16T02:16:41;8.67;;;5.83;;
38425;SDS011;24210;51.460;6.148;2023-04-16T02:19:06;12.37;;;5.70;;
38425;SDS011;24210;51.460;6.148;2023-04-16T02:21:31;8.60;;;5.77;;
38425;SDS011;24210;51.460;6.148;2023-04-16T02:23:57;9.33;;;4.73;;
38425;SDS011;24210;51.460;6.148;2023-04-16T02:26:22;12.17;;;5.73;;
38425;SDS011;24210;51.460;6.148;2023-04-16T02:28:47;12.93;;;6.13;;
38425;SDS011;24210;51.460;6.148;2023-04-16T02:31:13;12.17;;;5.43;;
38425;SDS011;24210;51.460;6.148;2023-04-16T02:33:38;8.77;;;5.30;;
38425;SDS011;24210;51.460;6.148;2023-04-16T02:36:04;13.13;;;7.30;;
38425;SDS011;24210;51.460;6.148;2023-04-16T02:38:29;12.67;;;6.23;;
38425;SDS011;24210;51.460;6.148;2023-04-16T02:40:54;14.33;;;7.13;;
38425;SDS011;24210;51.460;6.148;2023-04-16T02:43:20;16.93;;;7.60;;
38425;SDS011;24210;51.460;6.148;2023-04-16T02:45:45;11.20;;;5.83;;
38425;SDS011;24210;51.460;6.148;2023-04-16T02:48:10;13.90;;;7.30;;
38425;SDS011;24210;51.460;6.148;2023-04-16T02:50:35;12.87;;;6.50;;
38425;SDS011;24210;51.460;6.148;2023-04-16T02:53:01;10.30;;;6.10;;
38425;SDS011;24210;51.460;6.148;2023-04-16T02:55:26;15.37;;;7.33;;
38425;SDS011;24210;51.460;6.148;2023-04-16T02:57:53;12.35;;;7.22;;
38425;SDS011;24210;51.460;6.148;2023-04-16T03:00:18;13.83;;;6.37;;
38425;SDS011;24210;51.460;6.148;2023-04-16T03:02:43;13.43;;;5.77;;
38425;SDS011;24210;51.460;6.148;2023-04-16T03:05:09;12.40;;;7.37;;
38425;SDS011;24210;51.460;6.148;2023-04-16T03:07:34;15.20;;;7.23;;
38425;SDS011;24210;51.460;6.148;2023-04-16T03:09:59;10.83;;;6.47;;
38425;SDS011;24210;51.460;6.148;2023-04-16T03:12:25;12.27;;;7.13;;
38425;SDS011;24210;51.460;6.148;2023-04-16T03:14:50;13.03;;;8.13;;
38425;SDS011;24210;51.460;6.148;2023-04-16T03:17:16;15.02;;;8.13;;
38425;SDS011;24210;51.460;6.148;2023-04-16T03:19:41;15.67;;;8.17;;
38425;SDS011;24210;51.460;6.148;2023-04-16T03:22:07;13.37;;;7.50;;
38425;SDS011;24210;51.460;6.148;2023-04-16T03:24:32;15.87;;;6.70;;
38425;SDS011;24210;51.460;6.148;2023-04-16T03:26:57;12.87;;;7.53;;
38425;SDS011;24210;51.460;6.148;2023-04-16T03:29:22;10.87;;;5.93;;
38425;SDS011;24210;51.460;6.148;2023-04-16T03:31:48;15.40;;;9.50;;
38425;SDS011;24210;51.460;6.148;2023-04-16T03:34:13;16.80;;;8.63;;
38425;SDS011;24210;51.460;6.148;2023-04-16T03:36:38;15.23;;;8.33;;
38425;SDS011;24210;51.460;6.148;2023-04-16T03:39:04;15.47;;;8.30;;
38425;SDS011;24210;51.460;6.148;2023-04-16T03:41:29;13.17;;;6.87;;
38425;SDS011;24210;51.460;6.148;2023-04-16T03:43:54;15.97;;;8.93;;
38425;SDS011;24210;51.460;6.148;2023-04-16T03:46:20;15.43;;;8.00;;
38425;SDS011;24210;51.460;6.148;2023-04-16T03:48:45;18.10;;;8.87;;
38425;SDS011;24210;51.460;6.148;2023-04-16T03:51:10;14.13;;;7.77;;
38425;SDS011;24210;51.460;6.148;2023-04-16T03:53:35;13.23;;;8.43;;
38425;SDS011;24210;51.460;6.148;2023-04-16T03:56:00;13.43;;;8.77;;
38425;SDS011;24210;51.460;6.148;2023-04-16T03:58:26;15.43;;;8.80;;
38425;SDS011;24210;51.460;6.148;2023-04-16T04:00:54;14.47;;;8.67;;
38425;SDS011;24210;51.460;6.148;2023-04-16T04:03:19;14.00;;;8.40;;
38425;SDS011;24210;51.460;6.148;2023-04-16T04:05:44;17.00;;;9.87;;
38425;SDS011;24210;51.460;6.148;2023-04-16T04:08:10;21.50;;;8.60;;
38425;SDS011;24210;51.460;6.148;2023-04-16T04:10:35;17.70;;;8.93;;
38425;SDS011;24210;51.460;6.148;2023-04-16T04:13:01;22.50;;;11.70;;
38425;SDS011;24210;51.460;6.148;2023-04-16T04:15:27;19.77;;;10.02;;
38425;SDS011;24210;51.460;6.148;2023-04-16T04:17:52;20.47;;;10.60;;
38425;SDS011;24210;51.460;6.148;2023-04-16T04:20:17;15.43;;;9.23;;
38425;SDS011;24210;51.460;6.148;2023-04-16T04:22:42;18.13;;;9.97;;
38425;SDS011;24210;51.460;6.148;2023-04-16T04:25:11;24.17;;;11.67;;
38425;SDS011;24210;51.460;6.148;2023-04-16T04:27:36;15.73;;;10.10;;
38425;SDS011;24210;51.460;6.148;2023-04-16T04:30:01;17.73;;;10.70;;
38425;SDS011;24210;51.460;6.148;2023-04-16T04:32:28;17.75;;;9.45;;
38425;SDS011;24210;51.460;6.148;2023-04-16T04:34:53;18.43;;;10.80;;
38425;SDS011;24210;51.460;6.148;2023-04-16T04:37:18;19.33;;;10.83;;
38425;SDS011;24210;51.460;6.148;2023-04-16T04:39:44;18.07;;;9.97;;
38425;SDS011;24210;51.460;6.148;2023-04-16T04:42:09;18.57;;;10.30;;
38425;SDS011;24210;51.460;6.148;2023-04-16T04:44:34;18.83;;;9.80;;
38425;SDS011;24210;51.460;6.148;2023-04-16T04:46:59;26.03;;;12.57;;
38425;SDS011;24210;51.460;6.148;2023-04-16T04:49:24;22.03;;;11.07;;
38425;SDS011;24210;51.460;6.148;2023-04-16T04:51:50;23.97;;;11.47;;
38425;SDS011;24210;51.460;6.148;2023-04-16T04:54:15;24.23;;;11.87;;
38425;SDS011;24210;51.460;6.148;2023-04-16T04:56:40;24.67;;;11.37;;
38425;SDS011;24210;51.460;6.148;2023-04-16T04:59:06;20.47;;;11.37;;
38425;SDS011;24210;51.460;6.148;2023-04-16T05:01:31;21.70;;;11.63;;
38425;SDS011;24210;51.460;6.148;2023-04-16T05:03:56;20.07;;;11.47;;
38425;SDS011;24210;51.460;6.148;2023-04-16T05:06:21;26.43;;;12.30;;
38425;SDS011;24210;51.460;6.148;2023-04-16T05:08:46;18.77;;;11.17;;
38425;SDS011;24210;51.460;6.148;2023-04-16T05:11:12;18.47;;;10.07;;
38425;SDS011;24210;51.460;6.148;2023-04-16T05:13:37;22.47;;;11.27;;
38425;SDS011;24210;51.460;6.148;2023-04-16T05:16:02;27.40;;;11.30;;
38425;SDS011;24210;51.460;6.148;2023-04-16T05:18:28;27.57;;;12.73;;
38425;SDS011;24210;51.460;6.148;2023-04-16T05:20:53;26.47;;;12.67;;
38425;SDS011;24210;51.460;6.148;2023-04-16T05:23:18;21.43;;;11.33;;
38425;SDS011;24210;51.460;6.148;2023-04-16T05:25:43;14.83;;;10.30;;
38425;SDS011;24210;51.460;6.148;2023-04-16T05:28:09;21.90;;;11.77;;
38425;SDS011;24210;51.460;6.148;2023-04-16T05:30:34;21.80;;;10.67;;
38425;SDS011;24210;51.460;6.148;2023-04-16T05:32:59;24.43;;;12.37;;
38425;SDS011;24210;51.460;6.148;2023-04-16T05:35:25;27.13;;;11.60;;
38425;SDS011;24210;51.460;6.148;2023-04-16T05:37:50;21.07;;;11.03;;
38425;SDS011;24210;51.460;6.148;2023-04-16T05:40:15;22.37;;;12.80;;
38425;SDS011;24210;51.460;6.148;2023-04-16T05:42:41;20.97;;;12.07;;
38425;SDS011;24210;51.460;6.148;2023-04-16T05:45:06;21.17;;;12.80;;
38425;SDS011;24210;51.460;6.148;2023-04-16T05:47:31;15.33;;;6.97;;
38425;SDS011;24210;51.460;6.148;2023-04-16T05:49:57;19.90;;;10.43;;
38425;SDS011;24210;51.460;6.148;2023-04-16T05:52:22;20.27;;;11.60;;
38425;SDS011;24210;51.460;6.148;2023-04-16T05:54:47;23.57;;;13.00;;
38425;SDS011;24210;51.460;6.148;2023-04-16T05:57:12;19.63;;;11.23;;
38425;SDS011;24210;51.460;6.148;2023-04-16T05:59:38;18.77;;;12.23;;
38425;SDS011;24210;51.460;6.148;2023-04-16T06:02:03;20.30;;;11.40;;
38425;SDS011;24210;51.460;6.148;2023-04-16T06:04:28;22.60;;;12.00;;
38425;SDS011;24210;51.460;6.148;2023-04-16T06:06:54;21.42;;;12.50;;
38425;SDS011;24210;51.460;6.148;2023-04-16T06:09:20;23.07;;;12.90;;
38425;SDS011;24210;51.460;6.148;2023-04-16T06:11:45;18.67;;;10.87;;
38425;SDS011;24210;51.460;6.148;2023-04-16T06:14:10;23.00;;;12.47;;
38425;SDS011;24210;51.460;6.148;2023-04-16T06:16:36;30.23;;;13.90;;
38425;SDS011;24210;51.460;6.148;2023-04-16T06:19:01;25.03;;;12.40;;
38425;SDS011;24210;51.460;6.148;2023-04-16T06:21:27;25.73;;;13.07;;
38425;SDS011;24210;51.460;6.148;2023-04-16T06:23:53;30.30;;;13.25;;
38425;SDS011;24210;51.460;6.148;2023-04-16T06:26:18;23.23;;;12.57;;
38425;SDS011;24210;51.460;6.148;2023-04-16T06:28:43;23.50;;;12.87;;
38425;SDS011;24210;51.460;6.148;2023-04-16T06:31:08;29.47;;;15.33;;
38425;SDS011;24210;51.460;6.148;2023-04-16T06:33:34;26.93;;;15.23;;
38425;SDS011;24210;51.460;6.148;2023-04-16T06:35:59;23.63;;;14.17;;
38425;SDS011;24210;51.460;6.148;2023-04-16T06:38:24;25.10;;;13.07;;
38425;SDS011;24210;51.460;6.148;2023-04-16T06:40:50;22.17;;;14.60;;
38425;SDS011;24210;51.460;6.148;2023-04-16T06:43:15;25.83;;;12.43;;
38425;SDS011;24210;51.460;6.148;2023-04-16T06:45:41;21.83;;;13.70;;
38425;SDS011;24210;51.460;6.148;2023-04-16T06:48:07;30.83;;;14.80;;
38425;SDS011;24210;51.460;6.148;2023-04-16T06:50:32;21.60;;;13.17;;
38425;SDS011;24210;51.460;6.148;2023-04-16T06:52:57;26.53;;;14.43;;
38425;SDS011;24210;51.460;6.148;2023-04-16T06:55:22;26.40;;;13.77;;
38425;SDS011;24210;51.460;6.148;2023-04-16T06:57:48;23.83;;;13.20;;
38425;SDS011;24210;51.460;6.148;2023-04-16T07:00:13;24.13;;;13.67;;
38425;SDS011;24210;51.460;6.148;2023-04-16T07:02:38;23.70;;;15.03;;
38425;SDS011;24210;51.460;6.148;2023-04-16T07:05:04;22.17;;;14.37;;
38425;SDS011;24210;51.460;6.148;2023-04-16T07:07:29;22.50;;;11.13;;
38425;SDS011;24210;51.460;6.148;2023-04-16T07:09:55;25.07;;;13.20;;
38425;SDS011;24210;51.460;6.148;2023-04-16T07:12:20;21.67;;;12.27;;
38425;SDS011;24210;51.460;6.148;2023-04-16T07:14:45;22.83;;;12.17;;
38425;SDS011;24210;51.460;6.148;2023-04-16T07:17:11;23.93;;;14.53;;
38425;SDS011;24210;51.460;6.148;2023-04-16T07:19:36;24.47;;;14.23;;
38425;SDS011;24210;51.460;6.148;2023-04-16T07:22:01;18.90;;;11.57;;
38425;SDS011;24210;51.460;6.148;2023-04-16T07:24:26;21.37;;;13.30;;
38425;SDS011;24210;51.460;6.148;2023-04-16T07:26:52;23.80;;;15.60;;
38425;SDS011;24210;51.460;6.148;2023-04-16T07:29:17;24.23;;;14.50;;
38425;SDS011;24210;51.460;6.148;2023-04-16T07:31:42;22.57;;;14.57;;
38425;SDS011;24210;51.460;6.148;2023-04-16T07:34:08;25.57;;;14.83;;
38425;SDS011;24210;51.460;6.148;2023-04-16T07:36:33;25.83;;;13.40;;
38425;SDS011;24210;51.460;6.148;2023-04-16T07:38:58;20.90;;;14.83;;
38425;SDS011;24210;51.460;6.148;2023-04-16T07:41:24;26.27;;;14.03;;
38425;SDS011;24210;51.460;6.148;2023-04-16T07:43:49;25.87;;;16.07;;
38425;SDS011;24210;51.460;6.148;2023-04-16T07:46:15;23.80;;;14.87;;
38425;SDS011;24210;51.460;6.148;2023-04-16T07:48:41;24.93;;;15.77;;
38425;SDS011;24210;51.460;6.148;2023-04-16T07:51:06;23.02;;;16.05;;
38425;SDS011;24210;51.460;6.148;2023-04-16T07:53:31;23.17;;;14.17;;
38425;SDS011;24210;51.460;6.148;2023-04-16T07:55:56;22.67;;;16.17;;
38425;SDS011;24210;51.460;6.148;2023-04-16T07:58:22;25.77;;;18.10;;
38425;SDS011;24210;51.460;6.148;2023-04-16T08:00:47;25.17;;;14.70;;
38425;SDS011;24210;51.460;6.148;2023-04-16T08:03:12;29.87;;;16.40;;
38425;SDS011;24210;51.460;6.148;2023-04-16T08:05:39;25.48;;;15.68;;
38425;SDS011;24210;51.460;6.148;2023-04-16T08:08:05;33.03;;;17.90;;
38425;SDS011;24210;51.460;6.148;2023-04-16T08:10:30;26.40;;;16.30;;
38425;SDS011;24210;51.460;6.148;2023-04-16T08:12:55;30.93;;;17.60;;
38425;SDS011;24210;51.460;6.148;2023-04-16T08:15:20;26.57;;;17.63;;
38425;SDS011;24210;51.460;6.148;2023-04-16T08:17:46;29.53;;;16.63;;
38425;SDS011;24210;51.460;6.148;2023-04-16T08:20:11;26.93;;;17.60;;
38425;SDS011;24210;51.460;6.148;2023-04-16T08:22:36;24.77;;;16.53;;
38425;SDS011;24210;51.460;6.148;2023-04-16T08:25:02;22.87;;;15.70;;
38425;SDS011;24210;51.460;6.148;2023-04-16T08:27:27;31.57;;;17.17;;
38425;SDS011;24210;51.460;6.148;2023-04-16T08:29:52;29.27;;;17.43;;
38425;SDS011;24210;51.460;6.148;2023-04-16T08:32:17;27.97;;;17.53;;
38425;SDS011;24210;51.460;6.148;2023-04-16T08:34:43;23.40;;;15.97;;
38425;SDS011;24210;51.460;6.148;2023-04-16T08:37:08;30.77;;;17.10;;
38425;SDS011;24210;51.460;6.148;2023-04-16T08:39:34;29.47;;;18.47;;
38425;SDS011;24210;51.460;6.148;2023-04-16T08:41:59;29.43;;;16.73;;
38425;SDS011;24210;51.460;6.148;2023-04-16T08:44:27;27.77;;;19.08;;
38425;SDS011;24210;51.460;6.148;2023-04-16T08:46:54;25.52;;;17.80;;
38425;SDS011;24210;51.460;6.148;2023-04-16T08:49:23;29.48;;;17.30;;
38425;SDS011;24210;51.460;6.148;2023-04-16T08:51:49;30.13;;;15.65;;
38425;SDS011;24210;51.460;6.148;2023-04-16T08:54:18;30.40;;;16.98;;
38425;SDS011;24210;51.460;6.148;2023-04-16T08:56:45;25.90;;;16.77;;
38425;SDS011;24210;51.460;6.148;2023-04-16T08:59:11;28.15;;;16.85;;
38425;SDS011;24210;51.460;6.148;2023-04-16T09:01:36;25.83;;;16.63;;
38425;SDS011;24210;51.460;6.148;2023-04-16T09:04:03;29.33;;;17.50;;
38425;SDS011;24210;51.460;6.148;2023-04-16T09:06:30;32.88;;;20.38;;
38425;SDS011;24210;51.460;6.148;2023-04-16T09:08:56;28.73;;;17.45;;
38425;SDS011;24210;51.460;6.148;2023-04-16T09:11:23;24.77;;;15.82;;
38425;SDS011;24210;51.460;6.148;2023-04-16T09:13:49;27.38;;;16.77;;
38425;SDS011;24210;51.460;6.148;2023-04-16T09:16:14;32.50;;;18.97;;
38425;SDS011;24210;51.460;6.148;2023-04-16T09:18:39;27.87;;;16.70;;
38425;SDS011;24210;51.460;6.148;2023-04-16T09:21:06;30.60;;;17.37;;
38425;SDS011;24210;51.460;6.148;2023-04-16T09:23:33;26.83;;;18.63;;
38425;SDS011;24210;51.460;6.148;2023-04-16T09:25:58;30.27;;;17.70;;
38425;SDS011;24210;51.460;6.148;2023-04-16T09:28:40;25.70;;;17.77;;
38425;SDS011;24210;51.460;6.148;2023-04-16T09:31:15;27.27;;;20.20;;
38425;SDS011;24210;51.460;6.148;2023-04-16T09:33:41;26.58;;;16.85;;
38425;SDS011;24210;51.460;6.148;2023-04-16T09:36:07;27.65;;;17.13;;
38425;SDS011;24210;51.460;6.148;2023-04-16T09:38:45;33.10;;;17.87;;
38425;SDS011;24210;51.460;6.148;2023-04-16T09:41:11;28.45;;;17.77;;
38425;SDS011;24210;51.460;6.148;2023-04-16T09:43:37;24.10;;;16.95;;
38425;SDS011;24210;51.460;6.148;2023-04-16T09:46:03;26.20;;;16.23;;
38425;SDS011;24210;51.460;6.148;2023-04-16T09:48:28;27.90;;;16.47;;
38425;SDS011;24210;51.460;6.148;2023-04-16T09:50:54;25.80;;;17.00;;
38425;SDS011;24210;51.460;6.148;2023-04-16T09:53:23;29.87;;;18.37;;
38425;SDS011;24210;51.460;6.148;2023-04-16T09:55:50;28.05;;;18.02;;
38425;SDS011;24210;51.460;6.148;2023-04-16T09:58:17;30.50;;;17.90;;
38425;SDS011;24210;51.460;6.148;2023-04-16T10:00:42;26.55;;;17.83;;
38425;SDS011;24210;51.460;6.148;2023-04-16T10:03:08;29.87;;;18.60;;
38425;SDS011;24210;51.460;6.148;2023-04-16T10:05:33;24.87;;;18.00;;
38425;SDS011;24210;51.460;6.148;2023-04-16T10:07:59;28.03;;;18.33;;
38425;SDS011;24210;51.460;6.148;2023-04-16T10:10:25;28.92;;;18.23;;
38425;SDS011;24210;51.460;6.148;2023-04-16T10:12:50;26.50;;;16.57;;
38425;SDS011;24210;51.460;6.148;2023-04-16T10:15:15;27.67;;;17.77;;
38425;SDS011;24210;51.460;6.148;2023-04-16T10:17:41;28.03;;;17.93;;
38425;SDS011;24210;51.460;6.148;2023-04-16T10:20:06;25.10;;;17.83;;
38425;SDS011;24210;51.460;6.148;2023-04-16T10:22:32;30.00;;;20.80;;
38425;SDS011;24210;51.460;6.148;2023-04-16T10:24:57;29.60;;;17.27;;
38425;SDS011;24210;51.460;6.148;2023-04-16T10:27:23;30.33;;;19.63;;
38425;SDS011;24210;51.460;6.148;2023-04-16T10:29:48;27.53;;;17.33;;
38425;SDS011;24210;51.460;6.148;2023-04-16T10:32:13;29.53;;;18.07;;
38425;SDS011;24210;51.460;6.148;2023-04-16T10:34:39;28.73;;;17.55;;
38425;SDS011;24210;51.460;6.148;2023-04-16T10:37:05;23.67;;;17.67;;
38425;SDS011;24210;51.460;6.148;2023-04-16T10:39:30;27.33;;;17.17;;
38425;SDS011;24210;51.460;6.148;2023-04-16T10:42:07;24.88;;;15.98;;
38425;SDS011;24210;51.460;6.148;2023-04-16T10:44:33;26.33;;;13.93;;
38425;SDS011;24210;51.460;6.148;2023-04-16T10:46:59;24.33;;;14.60;;
38425;SDS011;24210;51.460;6.148;2023-04-16T10:49:24;18.33;;;11.23;;
38425;SDS011;24210;51.460;6.148;2023-04-16T10:51:54;23.45;;;16.35;;
38425;SDS011;24210;51.460;6.148;2023-04-16T10:54:21;25.25;;;17.65;;
38425;SDS011;24210;51.460;6.148;2023-04-16T10:56:46;14.85;;;11.25;;
38425;SDS011;24210;51.460;6.148;2023-04-16T10:59:12;19.80;;;15.47;;
38425;SDS011;24210;51.460;6.148;2023-04-16T11:01:41;21.87;;;12.90;;
38425;SDS011;24210;51.460;6.148;2023-04-16T11:07:32;22.25;;;12.07;;
38425;SDS011;24210;51.460;6.148;2023-04-16T11:12:23;21.23;;;15.88;;
38425;SDS011;24210;51.460;6.148;2023-04-16T11:14:57;27.40;;;15.45;;
38425;SDS011;24210;51.460;6.148;2023-04-16T11:17:26;23.20;;;15.10;;
38425;SDS011;24210;51.460;6.148;2023-04-16T11:19:51;20.02;;;14.13;;
38425;SDS011;24210;51.460;6.148;2023-04-16T11:22:17;24.67;;;15.60;;
38425;SDS011;24210;51.460;6.148;2023-04-16T11:24:45;21.30;;;13.97;;
38425;SDS011;24210;51.460;6.148;2023-04-16T11:27:11;20.95;;;14.20;;
38425;SDS011;24210;51.460;6.148;2023-04-16T11:29:36;22.17;;;15.10;;
38425;SDS011;24210;51.460;6.148;2023-04-16T11:32:02;22.07;;;13.10;;
38425;SDS011;24210;51.460;6.148;2023-04-16T11:34:27;24.57;;;15.30;;
38425;SDS011;24210;51.460;6.148;2023-04-16T11:36:52;21.93;;;15.57;;
38425;SDS011;24210;51.460;6.148;2023-04-16T11:39:17;18.93;;;12.53;;
38425;SDS011;24210;51.460;6.148;2023-04-16T11:41:43;24.93;;;15.73;;
38425;SDS011;24210;51.460;6.148;2023-04-16T11:46:43;23.33;;;15.68;;
38425;SDS011;24210;51.460;6.148;2023-04-16T11:49:08;23.30;;;13.87;;
38425;SDS011;24210;51.460;6.148;2023-04-16T11:51:43;28.87;;;16.40;;
38425;SDS011;24210;51.460;6.148;2023-04-16T11:54:08;20.67;;;14.25;;
38425;SDS011;24210;51.460;6.148;2023-04-16T11:56:34;25.03;;;15.50;;
38425;SDS011;24210;51.460;6.148;2023-04-16T12:01:35;21.98;;;15.50;;
38425;SDS011;24210;51.460;6.148;2023-04-16T12:04:00;21.90;;;14.85;;
38425;SDS011;24210;51.460;6.148;2023-04-16T12:06:26;22.17;;;15.53;;
38425;SDS011;24210;51.460;6.148;2023-04-16T12:08:51;24.23;;;15.80;;
38425;SDS011;24210;51.460;6.148;2023-04-16T12:11:16;25.90;;;16.33;;
38425;SDS011;24210;51.460;6.148;2023-04-16T12:13:41;26.90;;;15.03;;
38425;SDS011;24210;51.460;6.148;2023-04-16T12:16:17;23.37;;;14.30;;
38425;SDS011;24210;51.460;6.148;2023-04-16T12:18:57;22.38;;;15.60;;
38425;SDS011;24210;51.460;6.148;2023-04-16T12:21:22;18.90;;;15.25;;
38425;SDS011;24210;51.460;6.148;2023-04-16T12:23:51;20.13;;;14.10;;
38425;SDS011;24210;51.460;6.148;2023-04-16T12:26:17;26.13;;;15.55;;
38425;SDS011;24210;51.460;6.148;2023-04-16T12:28:42;22.20;;;14.93;;
38425;SDS011;24210;51.460;6.148;2023-04-16T12:31:07;18.97;;;13.53;;
38425;SDS011;24210;51.460;6.148;2023-04-16T12:33:34;21.50;;;15.20;;
38425;SDS011;24210;51.460;6.148;2023-04-16T12:35:59;20.13;;;13.90;;
38425;SDS011;24210;51.460;6.148;2023-04-16T12:38:27;23.15;;;15.90;;
38425;SDS011;24210;51.460;6.148;2023-04-16T12:40:52;21.60;;;14.40;;
38425;SDS011;24210;51.460;6.148;2023-04-16T12:43:20;21.73;;;14.48;;
38425;SDS011;24210;51.460;6.148;2023-04-16T12:45:46;21.03;;;12.87;;
38425;SDS011;24210;51.460;6.148;2023-04-16T12:48:11;21.83;;;14.97;;
38425;SDS011;24210;51.460;6.148;2023-04-16T12:50:36;25.90;;;15.67;;
38425;SDS011;24210;51.460;6.148;2023-04-16T12:53:03;20.10;;;15.45;;
38425;SDS011;24210;51.460;6.148;2023-04-16T12:55:28;19.40;;;13.90;;
38425;SDS011;24210;51.460;6.148;2023-04-16T12:57:54;17.97;;;12.83;;
38425;SDS011;24210;51.460;6.148;2023-04-16T13:00:19;20.70;;;15.77;;
38425;SDS011;24210;51.460;6.148;2023-04-16T13:02:45;20.43;;;14.23;;
38425;SDS011;24210;51.460;6.148;2023-04-16T13:05:10;21.10;;;11.33;;
38425;SDS011;24210;51.460;6.148;2023-04-16T13:07:37;25.85;;;16.27;;
38425;SDS011;24210;51.460;6.148;2023-04-16T13:10:02;24.90;;;15.97;;
38425;SDS011;24210;51.460;6.148;2023-04-16T13:12:27;21.90;;;14.93;;
38425;SDS011;24210;51.460;6.148;2023-04-16T13:14:53;21.07;;;14.40;;
38425;SDS011;24210;51.460;6.148;2023-04-16T13:17:19;22.75;;;16.08;;
38425;SDS011;24210;51.460;6.148;2023-04-16T13:19:44;25.20;;;16.67;;
38425;SDS011;24210;51.460;6.148;2023-04-16T13:22:09;22.07;;;15.37;;
38425;SDS011;24210;51.460;6.148;2023-04-16T13:24:35;23.17;;;15.47;;
38425;SDS011;24210;51.460;6.148;2023-04-16T13:27:00;22.33;;;13.93;;
38425;SDS011;24210;51.460;6.148;2023-04-16T13:29:25;20.43;;;17.57;;
38425;SDS011;24210;51.460;6.148;2023-04-16T13:31:51;19.60;;;15.27;;
38425;SDS011;24210;51.460;6.148;2023-04-16T13:34:16;22.50;;;15.70;;
38425;SDS011;24210;51.460;6.148;2023-04-16T13:36:41;24.27;;;14.10;;
38425;SDS011;24210;51.460;6.148;2023-04-16T13:39:07;24.60;;;16.93;;
38425;SDS011;24210;51.460;6.148;2023-04-16T13:41:38;27.70;;;16.85;;
38425;SDS011;24210;51.460;6.148;2023-04-16T13:44:03;26.08;;;15.43;;
38425;SDS011;24210;51.460;6.148;2023-04-16T13:46:29;28.23;;;20.00;;
38425;SDS011;24210;51.460;6.148;2023-04-16T13:48:54;21.23;;;13.30;;
38425;SDS011;24210;51.460;6.148;2023-04-16T13:51:20;18.67;;;6.83;;
38425;SDS011;24210;51.460;6.148;2023-04-16T13:53:45;14.67;;;8.47;;
38425;SDS011;24210;51.460;6.148;2023-04-16T13:56:10;23.90;;;7.53;;
38425;SDS011;24210;51.460;6.148;2023-04-16T13:58:36;24.43;;;15.23;;
38425;SDS011;24210;51.460;6.148;2023-04-16T14:01:01;31.70;;;17.47;;
38425;SDS011;24210;51.460;6.148;2023-04-16T14:03:26;5.93;;;4.03;;
38425;SDS011;24210;51.460;6.148;2023-04-16T14:05:52;24.73;;;13.70;;
38425;SDS011;24210;51.460;6.148;2023-04-16T14:08:18;28.17;;;16.93;;
38425;SDS011;24210;51.460;6.148;2023-04-16T14:10:45;27.30;;;16.88;;
38425;SDS011;24210;51.460;6.148;2023-04-16T14:13:10;27.17;;;18.50;;
38425;SDS011;24210;51.460;6.148;2023-04-16T14:15:36;24.73;;;17.87;;
38425;SDS011;24210;51.460;6.148;2023-04-16T14:18:01;28.17;;;17.87;;
38425;SDS011;24210;51.460;6.148;2023-04-16T14:20:27;20.60;;;12.43;;
38425;SDS011;24210;51.460;6.148;2023-04-16T14:22:52;25.30;;;16.47;;
38425;SDS011;24210;51.460;6.148;2023-04-16T14:25:18;24.77;;;15.50;;
38425;SDS011;24210;51.460;6.148;2023-04-16T14:27:43;27.07;;;18.47;;
38425;SDS011;24210;51.460;6.148;2023-04-16T14:30:08;26.83;;;13.07;;